Time;durP1;ratioP1;P1;durP2;ratioP2;P2;SDS_P1;SDS_P2;PMS_P1;PMS_P2;Temp;Humidity;BMP_temperature;BMP_pressure;BME280_temperature;BME280_humidity;BME280_pressure;Samples;Min_cycle;Max_cycle;Signal;HPM_P1;HPM_P2
2023/08/12 00:00:32;;;;;;;7.43;4.83;;;;;;;;;;5107016;28;20692;-64
2023/08/12 00:03:02;;;;;;;5.80;5.23;;;;;;;;;;5106993;28;20644;-63
2023/08/12 00:05:30;;;;;;;6.50;5.90;;;;;;;;;;5107421;28;20652;-64
2023/08/12 00:07:59;;;;;;;5.70;5.10;;;;;;;;;;5090534;28;20632;-63
2023/08/12 00:10:27;;;;;;;6.10;5.50;;;;;;;;;;5107995;28;20726;-63
2023/08/12 00:12:55;;;;;;;8.70;5.70;;;;;;;;;;5088948;28;20909;-65
2023/08/12 00:15:23;;;;;;;5.50;4.83;;;;;;;;;;5095855;28;20697;-63
2023/08/12 00:17:52;;;;;;;8.20;5.67;;;;;;;;;;5107829;28;20652;-64
2023/08/12 00:20:21;;;;;;;6.20;5.80;;;;;;;;;;5107530;28;20637;-63
2023/08/12 00:22:50;;;;;;;8.80;5.63;;;;;;;;;;5107157;28;21170;-63
2023/08/12 00:25:18;;;;;;;5.33;4.83;;;;;;;;;;5072920;28;20645;-63
2023/08/12 00:27:46;;;;;;;5.40;5.00;;;;;;;;;;5107766;28;20643;-65
2023/08/12 00:30:15;;;;;;;6.10;5.60;;;;;;;;;;5107431;28;20667;-63
2023/08/12 00:32:44;;;;;;;7.03;6.13;;;;;;;;;;5107914;28;20669;-64
2023/08/12 00:35:12;;;;;;;13.33;5.67;;;;;;;;;;5089426;28;20676;-63
2023/08/12 00:37:42;;;;;;;5.87;5.27;;;;;;;;;;5107843;28;21158;-63
2023/08/12 00:40:12;;;;;;;6.43;4.77;;;;;;;;;;5106971;28;20630;-63
2023/08/12 00:42:40;;;;;;;5.57;5.17;;;;;;;;;;5107488;28;20625;-65
2023/08/12 00:45:12;;;;;;;5.53;5.13;;;;;;;;;;5106980;28;20613;-63
2023/08/12 00:47:41;;;;;;;7.83;4.90;;;;;;;;;;5106703;28;20605;-64
2023/08/12 00:50:13;;;;;;;5.87;5.50;;;;;;;;;;5107156;28;20593;-64
2023/08/12 00:52:43;;;;;;;6.47;5.87;;;;;;;;;;5106587;28;20701;-63
2023/08/12 00:55:11;;;;;;;7.83;5.97;;;;;;;;;;5107717;28;20671;-66
2023/08/12 00:57:41;;;;;;;8.83;5.30;;;;;;;;;;5089089;28;20700;-64
2023/08/12 01:00:13;;;;;;;6.50;5.90;;;;;;;;;;5107245;28;21214;-68
2023/08/12 01:02:45;;;;;;;5.77;5.30;;;;;;;;;;5106289;28;20963;-63
2023/08/12 01:05:13;;;;;;;6.20;5.60;;;;;;;;;;5105697;28;20646;-63
2023/08/12 01:07:43;;;;;;;5.50;5.00;;;;;;;;;;5106772;28;20711;-62
2023/08/12 01:10:14;;;;;;;5.53;5.07;;;;;;;;;;5106301;28;20661;-65
2023/08/12 01:12:45;;;;;;;5.83;5.33;;;;;;;;;;5088557;28;20736;-65
2023/08/12 01:15:16;;;;;;;4.90;4.50;;;;;;;;;;5107266;28;20597;-64
2023/08/12 01:17:44;;;;;;;5.17;4.87;;;;;;;;;;5106518;28;20620;-64
2023/08/12 01:20:14;;;;;;;5.13;4.70;;;;;;;;;;5107226;28;20697;-64
2023/08/12 01:22:46;;;;;;;6.00;5.60;;;;;;;;;;5103901;28;20709;-66
2023/08/12 01:25:15;;;;;;;5.63;4.97;;;;;;;;;;5107190;28;20604;-64
2023/08/12 01:27:44;;;;;;;6.03;5.43;;;;;;;;;;5106258;28;20648;-63
2023/08/12 01:30:13;;;;;;;5.20;4.80;;;;;;;;;;5106693;28;20720;-64
2023/08/12 01:32:43;;;;;;;7.33;6.30;;;;;;;;;;5107151;28;21294;-66
2023/08/12 01:35:17;;;;;;;5.43;4.93;;;;;;;;;;5089300;28;20605;-65
2023/08/12 01:37:46;;;;;;;5.33;5.03;;;;;;;;;;5106726;28;20632;-70
2023/08/12 01:40:16;;;;;;;5.90;5.00;;;;;;;;;;5106729;28;20633;-64
2023/08/12 01:42:45;;;;;;;5.80;5.17;;;;;;;;;;5089667;28;20620;-64
2023/08/12 01:45:16;;;;;;;6.33;5.93;;;;;;;;;;5089657;28;20593;-67
2023/08/12 01:47:44;;;;;;;5.93;5.40;;;;;;;;;;5104459;28;20647;-64
2023/08/12 01:50:13;;;;;;;11.20;5.50;;;;;;;;;;5091359;28;20655;-64
2023/08/12 01:52:41;;;;;;;6.17;5.57;;;;;;;;;;5106758;28;20732;-64
2023/08/12 01:55:10;;;;;;;4.90;4.60;;;;;;;;;;5106798;28;20617;-64
2023/08/12 01:57:39;;;;;;;5.83;5.33;;;;;;;;;;5106592;28;20649;-65
2023/08/12 02:00:08;;;;;;;5.93;5.43;;;;;;;;;;5106751;28;20625;-64
2023/08/12 02:02:55;;;;;;;5.67;5.27;;;;;;;;;;5087336;28;21623;-65
2023/08/12 02:05:23;;;;;;;5.97;5.30;;;;;;;;;;5101543;28;20717;-64
2023/08/12 02:07:52;;;;;;;6.33;5.80;;;;;;;;;;5093061;28;20641;-64
2023/08/12 02:10:20;;;;;;;5.73;5.33;;;;;;;;;;5089438;28;20681;-65
2023/08/12 02:12:50;;;;;;;6.00;5.50;;;;;;;;;;5089927;28;20736;-64
2023/08/12 02:15:19;;;;;;;5.60;5.20;;;;;;;;;;5089285;28;20669;-64
2023/08/12 02:17:47;;;;;;;5.97;5.37;;;;;;;;;;5089532;28;21048;-64
2023/08/12 02:20:16;;;;;;;6.13;5.53;;;;;;;;;;5089377;28;20642;-68
2023/08/12 02:22:44;;;;;;;6.17;5.20;;;;;;;;;;5089865;28;21057;-65
2023/08/12 02:25:12;;;;;;;4.93;4.63;;;;;;;;;;5090141;28;20618;-64
2023/08/12 02:27:41;;;;;;;5.97;5.47;;;;;;;;;;5088104;28;20664;-64
2023/08/12 02:30:11;;;;;;;5.70;5.30;;;;;;;;;;5089285;28;20664;-64
2023/08/12 02:32:39;;;;;;;5.37;4.97;;;;;;;;;;5089045;28;20730;-64
2023/08/12 02:35:08;;;;;;;5.20;4.87;;;;;;;;;;5089562;28;20644;-64
2023/08/12 02:37:36;;;;;;;5.50;5.03;;;;;;;;;;5088573;28;20629;-64
2023/08/12 02:40:05;;;;;;;5.73;5.13;;;;;;;;;;5089541;28;20626;-65
2023/08/12 02:42:34;;;;;;;5.60;5.03;;;;;;;;;;5088511;28;20733;-65
2023/08/12 02:45:02;;;;;;;5.63;5.13;;;;;;;;;;5089843;28;20625;-64
2023/08/12 02:47:31;;;;;;;5.27;4.87;;;;;;;;;;5089191;28;20653;-65
2023/08/12 02:50:00;;;;;;;5.70;5.30;;;;;;;;;;5089643;28;20638;-67
2023/08/12 02:52:28;;;;;;;5.90;5.50;;;;;;;;;;5087918;28;20733;-64
2023/08/12 02:54:56;;;;;;;5.27;4.90;;;;;;;;;;5088896;28;20649;-66
2023/08/12 02:57:24;;;;;;;5.53;5.03;;;;;;;;;;5087267;28;20689;-65
2023/08/12 02:59:53;;;;;;;6.20;5.80;;;;;;;;;;5089115;28;20626;-64
2023/08/12 03:02:21;;;;;;;7.03;5.23;;;;;;;;;;5086927;28;20689;-64
2023/08/12 03:04:51;;;;;;;6.53;5.93;;;;;;;;;;5087853;28;20649;-65
2023/08/12 03:07:19;;;;;;;5.70;5.17;;;;;;;;;;5089276;28;20645;-65
2023/08/12 03:09:48;;;;;;;6.37;5.87;;;;;;;;;;5085020;28;20679;-64
2023/08/12 03:12:16;;;;;;;6.13;5.53;;;;;;;;;;5074708;28;20733;-67
2023/08/12 03:14:44;;;;;;;8.80;6.07;;;;;;;;;;5088857;28;20642;-64
2023/08/12 03:17:12;;;;;;;6.27;5.57;;;;;;;;;;5087258;28;21105;-65
2023/08/12 03:19:41;;;;;;;6.17;5.67;;;;;;;;;;5087526;28;20683;-64
2023/08/12 03:22:10;;;;;;;5.97;5.47;;;;;;;;;;5088495;28;20626;-64
2023/08/12 03:24:41;;;;;;;6.03;5.53;;;;;;;;;;5087021;28;20705;-65
2023/08/12 03:27:09;;;;;;;6.07;5.53;;;;;;;;;;5087795;28;21041;-64
2023/08/12 03:29:37;;;;;;;7.03;6.23;;;;;;;;;;5087851;28;20756;-64
2023/08/12 03:32:06;;;;;;;7.80;6.07;;;;;;;;;;5089032;28;20681;-64
2023/08/12 03:34:34;;;;;;;7.87;7.27;;;;;;;;;;5087216;28;20686;-64
2023/08/12 03:37:03;;;;;;;7.47;5.83;;;;;;;;;;5087952;28;20638;-65
2023/08/12 03:39:32;;;;;;;6.47;5.40;;;;;;;;;;5088802;28;20650;-65
2023/08/12 03:42:02;;;;;;;7.27;6.13;;;;;;;;;;5088810;28;20628;-64
2023/08/12 03:44:31;;;;;;;6.43;5.93;;;;;;;;;;5088324;28;20638;-65
2023/08/12 03:46:59;;;;;;;7.27;5.90;;;;;;;;;;5089077;28;20630;-64
2023/08/12 03:49:28;;;;;;;5.60;5.23;;;;;;;;;;5087390;28;20645;-65
2023/08/12 03:51:56;;;;;;;6.03;5.60;;;;;;;;;;5087296;28;21196;-65
2023/08/12 03:54:24;;;;;;;6.80;6.20;;;;;;;;;;5088193;28;20638;-64
2023/08/12 03:56:54;;;;;;;7.60;5.90;;;;;;;;;;5086913;28;20701;-64
2023/08/12 03:59:23;;;;;;;6.57;6.00;;;;;;;;;;5086727;28;20680;-64
2023/08/12 04:01:52;;;;;;;5.73;5.30;;;;;;;;;;5086728;28;20683;-64
2023/08/12 04:04:20;;;;;;;7.13;6.17;;;;;;;;;;5086323;28;20772;-65
2023/08/12 04:06:51;;;;;;;6.87;6.30;;;;;;;;;;5088057;28;20634;-64
2023/08/12 04:09:19;;;;;;;6.43;5.83;;;;;;;;;;5088436;28;21156;-66
2023/08/12 04:11:47;;;;;;;7.87;7.17;;;;;;;;;;5094738;28;20750;-64
2023/08/12 04:14:17;;;;;;;7.13;6.47;;;;;;;;;;5086957;28;20753;-66
2023/08/12 04:16:45;;;;;;;7.33;6.60;;;;;;;;;;5087473;28;20645;-69
2023/08/12 04:19:14;;;;;;;7.83;7.07;;;;;;;;;;5091073;28;20668;-64
2023/08/12 04:21:46;;;;;;;11.03;6.80;;;;;;;;;;5090130;28;20647;-65
2023/08/12 04:24:14;;;;;;;8.00;7.30;;;;;;;;;;5073374;28;20645;-64
2023/08/12 04:26:42;;;;;;;7.87;7.17;;;;;;;;;;5108444;28;20633;-64
2023/08/12 04:29:10;;;;;;;7.80;7.20;;;;;;;;;;5088770;28;20601;-64
2023/08/12 04:31:43;;;;;;;8.23;6.80;;;;;;;;;;5090275;28;20633;-65
2023/08/12 04:34:12;;;;;;;8.20;7.50;;;;;;;;;;5107612;28;20672;-64
2023/08/12 04:36:40;;;;;;;8.20;7.50;;;;;;;;;;5107836;28;20636;-63
2023/08/12 04:39:08;;;;;;;7.33;6.27;;;;;;;;;;5106962;28;20633;-63
2023/08/12 04:41:38;;;;;;;6.43;6.03;;;;;;;;;;5107477;28;20637;-64
2023/08/12 04:44:07;;;;;;;7.30;6.60;;;;;;;;;;5088963;28;20669;-65
2023/08/12 04:46:35;;;;;;;8.37;7.67;;;;;;;;;;5090054;28;21276;-67
2023/08/12 04:49:05;;;;;;;8.23;7.27;;;;;;;;;;5088762;28;20749;-65
2023/08/12 04:51:33;;;;;;;7.67;6.97;;;;;;;;;;5089260;28;20640;-64
2023/08/12 04:54:02;;;;;;;6.57;6.07;;;;;;;;;;5105492;28;20708;-64
2023/08/12 04:56:30;;;;;;;7.80;6.60;;;;;;;;;;5089005;28;20669;-64
2023/08/12 04:58:58;;;;;;;7.23;6.73;;;;;;;;;;5087972;28;20731;-63
2023/08/12 05:01:27;;;;;;;8.67;7.10;;;;;;;;;;5105735;28;20633;-65
2023/08/12 05:03:57;;;;;;;7.40;6.80;;;;;;;;;;5087314;28;21042;-66
2023/08/12 05:06:26;;;;;;;8.20;7.53;;;;;;;;;;5106657;28;20645;-64
2023/08/12 05:08:55;;;;;;;7.70;6.90;;;;;;;;;;5087835;28;21157;-67
2023/08/12 05:11:23;;;;;;;8.07;7.40;;;;;;;;;;5084096;28;20682;-63
2023/08/12 05:13:51;;;;;;;7.90;7.20;;;;;;;;;;5082764;28;21252;-64
2023/08/12 05:16:20;;;;;;;7.53;6.90;;;;;;;;;;5088824;28;20649;-64
2023/08/12 05:18:48;;;;;;;7.30;6.70;;;;;;;;;;5085205;28;20660;-64
2023/08/12 05:21:17;;;;;;;9.50;6.93;;;;;;;;;;5086879;28;20704;-63
2023/08/12 05:23:46;;;;;;;6.73;6.23;;;;;;;;;;5082245;28;20654;-69
2023/08/12 05:26:14;;;;;;;7.83;7.13;;;;;;;;;;5066465;28;20645;-64
2023/08/12 05:28:43;;;;;;;11.70;7.80;;;;;;;;;;5066136;28;20658;-64
2023/08/12 05:31:11;;;;;;;7.50;6.80;;;;;;;;;;5066583;28;20638;-64
2023/08/12 05:33:39;;;;;;;7.53;6.93;;;;;;;;;;5065787;28;20682;-64
2023/08/12 05:36:08;;;;;;;6.70;6.10;;;;;;;;;;5066519;28;20638;-64
2023/08/12 05:38:36;;;;;;;7.83;7.23;;;;;;;;;;5065448;28;20642;-64
2023/08/12 05:41:07;;;;;;;9.83;7.87;;;;;;;;;;5067840;28;20646;-65
2023/08/12 05:43:35;;;;;;;7.77;7.10;;;;;;;;;;5069010;28;20625;-66
2023/08/12 05:46:03;;;;;;;8.03;7.47;;;;;;;;;;5069486;28;20635;-65
2023/08/12 05:48:31;;;;;;;8.17;7.40;;;;;;;;;;5068477;28;20682;-64
2023/08/12 05:50:59;;;;;;;6.97;6.40;;;;;;;;;;5070659;28;20641;-64
2023/08/12 05:53:28;;;;;;;7.23;6.43;;;;;;;;;;5069572;28;20838;-65
2023/08/12 05:55:56;;;;;;;8.10;7.37;;;;;;;;;;5069495;28;20647;-64
2023/08/12 05:58:25;;;;;;;6.53;6.03;;;;;;;;;;5069294;28;20654;-63
2023/08/12 06:00:54;;;;;;;6.97;6.37;;;;;;;;;;5068702;28;20661;-65
2023/08/12 06:03:22;;;;;;;7.90;7.10;;;;;;;;;;5068964;28;20642;-65
2023/08/12 06:05:50;;;;;;;7.20;6.70;;;;;;;;;;5069479;28;20651;-64
2023/08/12 06:08:18;;;;;;;8.47;6.70;;;;;;;;;;5070354;28;20638;-64
2023/08/12 06:10:47;;;;;;;6.67;6.17;;;;;;;;;;5044411;28;1081786;-66
2023/08/12 06:13:15;;;;;;;6.50;5.90;;;;;;;;;;5096968;28;20654;-68
2023/08/12 06:15:45;;;;;;;7.50;6.60;;;;;;;;;;5111405;28;20602;-64
2023/08/12 06:18:13;;;;;;;6.17;5.70;;;;;;;;;;5111345;28;20636;-64
2023/08/12 06:20:42;;;;;;;8.20;5.80;;;;;;;;;;5092944;28;20677;-65
2023/08/12 06:23:10;;;;;;;7.83;6.93;;;;;;;;;;5112001;28;21090;-64
2023/08/12 06:25:38;;;;;;;7.33;6.37;;;;;;;;;;5110881;28;20632;-64
2023/08/12 06:28:08;;;;;;;6.60;6.00;;;;;;;;;;5110678;28;20629;-64
2023/08/12 06:30:36;;;;;;;9.50;6.20;;;;;;;;;;5111091;28;20621;-64
2023/08/12 06:33:06;;;;;;;6.17;5.77;;;;;;;;;;5111403;28;20657;-64
2023/08/12 06:35:34;;;;;;;6.83;6.33;;;;;;;;;;5111182;28;20702;-64
2023/08/12 06:38:03;;;;;;;6.70;6.07;;;;;;;;;;5111204;28;20644;-64
2023/08/12 06:40:31;;;;;;;7.30;5.33;;;;;;;;;;5112253;28;20633;-64
2023/08/12 06:42:59;;;;;;;6.70;6.10;;;;;;;;;;5110888;28;20616;-64
2023/08/12 06:45:27;;;;;;;7.17;6.50;;;;;;;;;;5104344;28;20724;-68
2023/08/12 06:47:55;;;;;;;7.10;6.40;;;;;;;;;;5092685;28;20625;-69
2023/08/12 06:50:25;;;;;;;6.70;6.10;;;;;;;;;;5094008;28;21193;-69
2023/08/12 06:52:53;;;;;;;6.33;5.70;;;;;;;;;;5093062;28;20609;-69
2023/08/12 06:55:21;;;;;;;7.20;6.50;;;;;;;;;;5093961;28;20652;-69
2023/08/12 06:57:49;;;;;;;8.20;6.97;;;;;;;;;;5093323;28;21007;-69
2023/08/12 07:00:18;;;;;;;7.63;6.30;;;;;;;;;;5093626;28;20613;-69
2023/08/12 07:02:46;;;;;;;6.07;5.47;;;;;;;;;;5092766;28;20627;-69
2023/08/12 07:05:14;;;;;;;6.60;5.63;;;;;;;;;;5092542;28;20957;-69
2023/08/12 07:07:44;;;;;;;6.43;6.03;;;;;;;;;;5093458;28;20617;-69
2023/08/12 07:10:12;;;;;;;7.03;6.43;;;;;;;;;;5093035;28;20664;-69
2023/08/12 07:12:40;;;;;;;6.77;6.07;;;;;;;;;;5074205;28;20634;-69
2023/08/12 07:15:10;;;;;;;6.80;6.20;;;;;;;;;;5073034;28;21011;-69
2023/08/12 07:17:38;;;;;;;9.13;7.33;;;;;;;;;;5072921;28;20622;-69
2023/08/12 07:20:07;;;;;;;9.50;6.00;;;;;;;;;;5072716;28;20624;-69
2023/08/12 07:22:36;;;;;;;6.23;5.73;;;;;;;;;;5073404;28;20674;-69
2023/08/12 07:25:06;;;;;;;6.83;6.10;;;;;;;;;;5072444;28;20631;-69
2023/08/12 07:27:34;;;;;;;7.47;6.77;;;;;;;;;;5093654;28;20617;-70
2023/08/12 07:30:02;;;;;;;5.63;5.17;;;;;;;;;;5092667;28;21374;-69
2023/08/12 07:32:31;;;;;;;5.97;4.80;;;;;;;;;;5093175;28;20605;-69
2023/08/12 07:34:59;;;;;;;6.63;6.10;;;;;;;;;;5087488;28;20659;-69
2023/08/12 07:37:27;;;;;;;6.70;6.00;;;;;;;;;;5093348;28;20609;-69
2023/08/12 07:39:55;;;;;;;5.80;4.93;;;;;;;;;;5092835;28;20613;-69
2023/08/12 07:42:25;;;;;;;5.13;4.70;;;;;;;;;;5092609;28;20617;-69
2023/08/12 07:44:53;;;;;;;6.00;5.40;;;;;;;;;;5092478;28;20614;-69
2023/08/12 07:47:21;;;;;;;7.93;6.03;;;;;;;;;;5092412;28;20979;-69
2023/08/12 07:49:49;;;;;;;6.90;5.60;;;;;;;;;;5092110;28;21184;-69
2023/08/12 07:52:18;;;;;;;6.57;5.33;;;;;;;;;;5092791;28;20678;-69
2023/08/12 07:54:46;;;;;;;7.00;6.40;;;;;;;;;;5091840;28;20653;-69
2023/08/12 07:57:14;;;;;;;7.43;6.63;;;;;;;;;;5092860;28;20617;-69
2023/08/12 07:59:44;;;;;;;6.77;6.17;;;;;;;;;;5074428;28;20609;-69
2023/08/12 08:02:12;;;;;;;5.40;4.90;;;;;;;;;;5092136;28;20605;-69
2023/08/12 08:04:40;;;;;;;6.30;5.60;;;;;;;;;;5072180;28;21047;-69
2023/08/12 08:07:08;;;;;;;6.47;5.80;;;;;;;;;;5092575;28;20605;-69
2023/08/12 08:09:36;;;;;;;7.40;5.77;;;;;;;;;;5091810;28;20651;-69
2023/08/12 08:12:05;;;;;;;6.63;5.57;;;;;;;;;;5092335;28;21076;-69
2023/08/12 08:14:33;;;;;;;8.60;6.10;;;;;;;;;;5091875;28;20648;-70
2023/08/12 08:17:03;;;;;;;6.23;5.83;;;;;;;;;;5092331;28;20974;-69
2023/08/12 08:19:31;;;;;;;6.03;5.63;;;;;;;;;;5091778;28;20613;-69
2023/08/12 08:21:59;;;;;;;6.03;5.50;;;;;;;;;;5091677;28;20618;-70
2023/08/12 08:24:28;;;;;;;10.73;6.10;;;;;;;;;;5092146;28;20598;-70
2023/08/12 08:26:56;;;;;;;6.53;6.00;;;;;;;;;;5073953;28;20620;-69
2023/08/12 08:29:24;;;;;;;7.50;6.90;;;;;;;;;;5092055;28;20614;-70
2023/08/12 08:31:53;;;;;;;7.20;5.80;;;;;;;;;;5073606;28;20621;-69
2023/08/12 08:34:22;;;;;;;6.80;5.67;;;;;;;;;;5091609;28;20606;-70
2023/08/12 08:36:51;;;;;;;7.13;6.53;;;;;;;;;;5091558;28;20605;-69
2023/08/12 08:39:21;;;;;;;6.77;6.27;;;;;;;;;;5092017;28;20613;-70
2023/08/12 08:41:49;;;;;;;7.47;6.77;;;;;;;;;;5092072;28;20667;-70
2023/08/12 08:44:19;;;;;;;9.40;6.50;;;;;;;;;;5091452;28;20940;-69
2023/08/12 08:46:48;;;;;;;6.93;6.30;;;;;;;;;;5091432;28;20605;-68
2023/08/12 08:49:17;;;;;;;6.90;6.30;;;;;;;;;;5091324;28;20621;-68
2023/08/12 08:51:48;;;;;;;7.53;6.93;;;;;;;;;;5091567;28;20635;-68
2023/08/12 08:54:16;;;;;;;15.53;7.60;;;;;;;;;;5073468;28;20592;-70
2023/08/12 08:56:45;;;;;;;6.63;6.13;;;;;;;;;;5091254;28;20661;-69
2023/08/12 08:59:13;;;;;;;10.27;6.40;;;;;;;;;;5074005;28;20989;-70
2023/08/12 09:01:42;;;;;;;10.20;7.00;;;;;;;;;;5090911;28;20612;-69
2023/08/12 09:04:10;;;;;;;7.53;7.00;;;;;;;;;;5090354;28;21182;-70
2023/08/12 09:06:39;;;;;;;8.67;6.50;;;;;;;;;;5091026;28;20612;-69
2023/08/12 09:09:11;;;;;;;7.00;6.50;;;;;;;;;;5091470;28;20605;-70
2023/08/12 09:11:40;;;;;;;7.63;6.90;;;;;;;;;;5083252;28;21021;-69
2023/08/12 09:14:09;;;;;;;7.07;6.40;;;;;;;;;;5053075;28;20625;-69
2023/08/12 09:16:37;;;;;;;7.50;6.90;;;;;;;;;;5083270;28;20701;-68
2023/08/12 09:19:06;;;;;;;7.40;6.80;;;;;;;;;;5091217;28;20617;-70
2023/08/12 09:21:34;;;;;;;8.17;7.40;;;;;;;;;;5090800;28;20973;-71
2023/08/12 09:24:04;;;;;;;8.93;8.23;;;;;;;;;;5090942;28;21188;-69
2023/08/12 09:26:34;;;;;;;9.20;8.40;;;;;;;;;;5091236;28;20570;-69
2023/08/12 09:29:02;;;;;;;8.53;7.63;;;;;;;;;;5090889;28;20609;-70
2023/08/12 09:31:32;;;;;;;9.10;7.40;;;;;;;;;;5090892;28;20615;-72
2023/08/12 09:34:01;;;;;;;7.90;7.30;;;;;;;;;;5090799;28;20673;-70
2023/08/12 09:36:32;;;;;;;8.73;7.90;;;;;;;;;;5090995;28;20721;-71
2023/08/12 09:39:00;;;;;;;8.70;7.90;;;;;;;;;;5056159;28;20666;-70
2023/08/12 09:41:29;;;;;;;7.80;7.20;;;;;;;;;;5091086;28;20617;-70
2023/08/12 09:43:59;;;;;;;7.73;7.30;;;;;;;;;;5090306;28;20617;-69
2023/08/12 09:46:27;;;;;;;8.70;7.80;;;;;;;;;;5073536;28;20609;-70
2023/08/12 09:48:56;;;;;;;8.60;7.80;;;;;;;;;;5089740;28;20596;-69
2023/08/12 09:51:24;;;;;;;8.73;7.90;;;;;;;;;;5090507;28;20620;-69
2023/08/12 09:53:53;;;;;;;8.53;7.90;;;;;;;;;;5090069;28;20606;-69
2023/08/12 09:56:24;;;;;;;8.87;8.17;;;;;;;;;;5090927;28;20675;-69
2023/08/12 09:58:53;;;;;;;10.60;7.20;;;;;;;;;;5090313;28;20584;-69
2023/08/12 10:01:23;;;;;;;8.00;7.43;;;;;;;;;;5090089;28;20620;-69
2023/08/12 10:03:52;;;;;;;9.23;8.53;;;;;;;;;;5089418;28;20613;-70
2023/08/12 10:06:21;;;;;;;8.17;7.47;;;;;;;;;;5090122;28;20606;-69
2023/08/12 10:08:50;;;;;;;8.87;8.13;;;;;;;;;;5090475;28;20613;-69
2023/08/12 10:11:18;;;;;;;7.73;7.00;;;;;;;;;;5089054;28;20667;-69
2023/08/12 10:13:46;;;;;;;8.70;8.10;;;;;;;;;;5086109;28;20619;-69
2023/08/12 10:16:14;;;;;;;8.93;8.23;;;;;;;;;;5089894;28;21023;-69
2023/08/12 10:18:44;;;;;;;8.33;7.73;;;;;;;;;;5090662;28;20964;-69
2023/08/12 10:21:14;;;;;;;8.27;7.77;;;;;;;;;;5090231;28;20958;-67
2023/08/12 10:23:45;;;;;;;8.10;7.60;;;;;;;;;;5090726;28;20924;-70
2023/08/12 10:26:14;;;;;;;8.97;8.27;;;;;;;;;;5090780;28;20598;-69
2023/08/12 10:28:42;;;;;;;8.50;7.90;;;;;;;;;;5094282;28;20608;-69
2023/08/12 10:31:12;;;;;;;8.67;7.97;;;;;;;;;;5093902;28;20673;-70
2023/08/12 10:33:41;;;;;;;8.90;8.30;;;;;;;;;;5094439;28;20603;-69
2023/08/12 10:36:11;;;;;;;11.93;8.20;;;;;;;;;;5093380;28;20644;-69
2023/08/12 10:38:39;;;;;;;8.73;7.90;;;;;;;;;;5093527;28;20638;-70
2023/08/12 10:41:17;;;;;;;8.13;7.40;;;;;;;;;;5093328;28;21062;-69
2023/08/12 10:43:53;;;;;;;7.50;6.93;;;;;;;;;;5093891;28;20625;-69
2023/08/12 10:46:25;;;;;;;8.87;6.57;;;;;;;;;;5093559;28;20578;-69
2023/08/12 10:49:01;;;;;;;8.33;6.23;;;;;;;;;;5094075;28;20585;-67
2023/08/12 10:51:50;;;;;;;20.47;6.50;;;;;;;;;;5093527;28;20650;-69
2023/08/12 10:54:19;;;;;;;6.50;5.40;;;;;;;;;;5093978;28;20641;-70
2023/08/12 10:57:07;;;;;;;4.80;4.50;;;;;;;;;;5093242;28;20653;-69
2023/08/12 10:59:52;;;;;;;6.17;5.60;;;;;;;;;;5093526;28;20590;-69
2023/08/12 11:02:21;;;;;;;5.00;4.27;;;;;;;;;;5092505;28;20599;-69
2023/08/12 11:04:54;;;;;;;5.63;4.77;;;;;;;;;;5092382;28;20605;-69
2023/08/12 11:07:24;;;;;;;5.37;4.60;;;;;;;;;;5093367;28;21205;-69
2023/08/12 11:09:53;;;;;;;5.00;4.50;;;;;;;;;;5092912;28;20637;-69
2023/08/12 11:12:29;;;;;;;6.30;3.50;;;;;;;;;;5075688;28;21011;-69
2023/08/12 11:14:59;;;;;;;7.10;3.70;;;;;;;;;;5075972;28;20612;-69
2023/08/12 11:17:30;;;;;;;7.07;2.93;;;;;;;;;;5093751;28;20652;-69
2023/08/12 11:19:59;;;;;;;4.43;3.10;;;;;;;;;;5093728;28;20589;-69
2023/08/12 11:22:29;;;;;;;3.63;2.30;;;;;;;;;;5093787;28;21035;-69
2023/08/12 11:24:57;;;;;;;5.67;2.90;;;;;;;;;;5093678;28;20625;-69
2023/08/12 11:27:26;;;;;;;2.77;2.57;;;;;;;;;;5093029;28;20613;-69
2023/08/12 11:29:54;;;;;;;2.70;2.50;;;;;;;;;;5075316;28;20609;-69
2023/08/12 11:32:22;;;;;;;2.93;2.60;;;;;;;;;;5093660;28;20663;-69
2023/08/12 11:34:53;;;;;;;2.67;2.50;;;;;;;;;;5092565;28;20603;-69
2023/08/12 11:37:22;;;;;;;3.43;2.70;;;;;;;;;;5087281;28;20661;-69
2023/08/12 11:39:53;;;;;;;2.60;2.40;;;;;;;;;;5104626;28;20680;-66
2023/08/12 11:42:21;;;;;;;3.00;2.57;;;;;;;;;;5109209;28;20605;-66
2023/08/12 11:44:49;;;;;;;5.73;2.40;;;;;;;;;;5107802;28;20637;-66
2023/08/12 11:47:17;;;;;;;2.80;2.60;;;;;;;;;;5107393;28;20641;-66
2023/08/12 11:49:45;;;;;;;2.40;2.23;;;;;;;;;;5106634;28;20640;-66
2023/08/12 11:52:14;;;;;;;5.07;2.23;;;;;;;;;;5090376;28;20692;-66
2023/08/12 11:54:42;;;;;;;2.67;2.50;;;;;;;;;;5106787;28;20693;-66
2023/08/12 11:57:12;;;;;;;4.43;2.60;;;;;;;;;;5106887;28;20709;-66
2023/08/12 11:59:40;;;;;;;5.63;3.17;;;;;;;;;;5106285;28;20637;-66
2023/08/12 12:02:08;;;;;;;4.17;3.10;;;;;;;;;;5106182;28;20665;-67
2023/08/12 12:04:36;;;;;;;3.47;2.60;;;;;;;;;;5087787;28;20701;-67
2023/08/12 12:07:06;;;;;;;3.30;3.10;;;;;;;;;;5105936;28;20677;-66
2023/08/12 12:09:34;;;;;;;4.10;3.40;;;;;;;;;;5104203;28;20729;-67
2023/08/12 12:12:03;;;;;;;4.07;3.50;;;;;;;;;;5104774;28;20724;-66
2023/08/12 12:14:32;;;;;;;3.60;3.30;;;;;;;;;;5103574;28;20677;-66
2023/08/12 12:17:00;;;;;;;4.17;3.80;;;;;;;;;;5104371;28;20740;-66
2023/08/12 12:19:29;;;;;;;4.50;4.10;;;;;;;;;;5103399;28;20704;-66
2023/08/12 12:21:57;;;;;;;4.07;3.70;;;;;;;;;;5103141;28;20712;-66
2023/08/12 12:24:30;;;;;;;3.90;3.60;;;;;;;;;;5102175;28;20697;-66
2023/08/12 12:26:59;;;;;;;5.10;4.10;;;;;;;;;;5102588;28;20641;-64
2023/08/12 12:29:27;;;;;;;4.07;3.77;;;;;;;;;;5102995;28;20700;-66
2023/08/12 12:31:56;;;;;;;3.87;3.57;;;;;;;;;;5103945;28;20677;-68
2023/08/12 12:34:24;;;;;;;5.20;4.90;;;;;;;;;;5087974;28;20673;-66
2023/08/12 12:36:53;;;;;;;8.20;7.50;;;;;;;;;;5105413;28;20716;-66
2023/08/12 12:39:22;;;;;;;8.90;8.20;;;;;;;;;;5084896;28;20688;-64
2023/08/12 12:41:51;;;;;;;10.50;9.70;;;;;;;;;;5104215;28;20681;-65
2023/08/12 12:44:19;;;;;;;11.13;10.23;;;;;;;;;;5102099;28;20688;-65
2023/08/12 12:46:47;;;;;;;12.30;11.60;;;;;;;;;;5100689;28;20650;-65
2023/08/12 12:49:17;;;;;;;12.53;11.77;;;;;;;;;;5102170;28;20680;-67
2023/08/12 12:51:45;;;;;;;12.97;12.00;;;;;;;;;;5100349;28;20708;-67
2023/08/12 12:54:13;;;;;;;13.30;12.50;;;;;;;;;;5101583;28;20696;-65
2023/08/12 12:56:41;;;;;;;13.00;12.20;;;;;;;;;;5083616;28;20712;-65
2023/08/12 12:59:09;;;;;;;12.60;11.70;;;;;;;;;;5103168;28;20681;-65
2023/08/12 13:01:38;;;;;;;11.30;10.70;;;;;;;;;;5103683;28;20697;-65
2023/08/12 13:04:08;;;;;;;11.53;10.73;;;;;;;;;;5102495;28;20708;-65
2023/08/12 13:06:37;;;;;;;10.37;9.77;;;;;;;;;;5102317;28;20692;-67
2023/08/12 13:09:06;;;;;;;9.80;9.00;;;;;;;;;;5101718;28;20673;-65
2023/08/12 13:11:35;;;;;;;8.53;7.90;;;;;;;;;;5102424;28;20713;-66
2023/08/12 13:14:04;;;;;;;7.97;7.27;;;;;;;;;;5084946;28;21076;-65
2023/08/12 13:16:33;;;;;;;8.20;7.60;;;;;;;;;;5102272;28;20760;-65
2023/08/12 13:19:01;;;;;;;8.70;8.07;;;;;;;;;;5084184;28;20609;-66
2023/08/12 13:21:29;;;;;;;9.23;8.70;;;;;;;;;;5099891;28;20624;-66
2023/08/12 13:24:01;;;;;;;8.50;8.03;;;;;;;;;;5082381;28;20721;-66
2023/08/12 13:26:29;;;;;;;9.23;8.53;;;;;;;;;;5081747;28;20673;-66
2023/08/12 13:28:57;;;;;;;7.90;7.50;;;;;;;;;;5080922;28;20698;-66
2023/08/12 13:31:26;;;;;;;6.90;6.30;;;;;;;;;;5080539;28;20697;-64
2023/08/12 13:33:54;;;;;;;6.97;6.50;;;;;;;;;;5079352;28;20678;-64
2023/08/12 13:36:22;;;;;;;6.10;5.67;;;;;;;;;;5082666;28;21269;-65
2023/08/12 13:38:50;;;;;;;5.80;5.40;;;;;;;;;;5096748;28;20744;-64
2023/08/12 13:41:20;;;;;;;6.03;5.60;;;;;;;;;;5098154;28;21100;-65
2023/08/12 13:43:48;;;;;;;5.53;5.10;;;;;;;;;;5098702;28;20669;-65
2023/08/12 13:46:16;;;;;;;6.13;4.77;;;;;;;;;;5097824;28;20688;-65
2023/08/12 13:48:44;;;;;;;5.70;5.20;;;;;;;;;;5078068;28;20711;-65
2023/08/12 13:51:13;;;;;;;4.70;4.40;;;;;;;;;;5097411;28;20696;-65
2023/08/12 13:53:41;;;;;;;5.47;5.07;;;;;;;;;;5097001;28;20751;-65
2023/08/12 13:56:09;;;;;;;5.90;5.50;;;;;;;;;;5097802;28;20680;-65
2023/08/12 13:58:39;;;;;;;6.60;6.07;;;;;;;;;;5097826;28;20732;-65
2023/08/12 14:01:08;;;;;;;5.70;5.40;;;;;;;;;;5096789;28;20677;-65
2023/08/12 14:03:37;;;;;;;5.73;5.33;;;;;;;;;;5100503;28;21043;-65
2023/08/12 14:06:07;;;;;;;6.07;5.47;;;;;;;;;;5098731;28;20586;-65
2023/08/12 14:08:35;;;;;;;6.47;5.67;;;;;;;;;;5100563;28;20680;-66
2023/08/12 14:11:03;;;;;;;6.47;5.77;;;;;;;;;;5099573;28;20718;-65
2023/08/12 14:13:31;;;;;;;6.37;5.70;;;;;;;;;;5084665;28;20724;-65
2023/08/12 14:16:01;;;;;;;6.33;5.73;;;;;;;;;;5081070;28;20685;-65
2023/08/12 14:18:29;;;;;;;6.53;6.03;;;;;;;;;;5083893;28;20713;-65
2023/08/12 14:20:57;;;;;;;7.37;6.13;;;;;;;;;;5081752;28;21032;-65
2023/08/12 14:23:25;;;;;;;7.00;6.30;;;;;;;;;;5082485;28;21294;-65
2023/08/12 14:25:54;;;;;;;6.00;5.50;;;;;;;;;;5082593;28;20695;-65
2023/08/12 14:28:22;;;;;;;7.03;6.30;;;;;;;;;;5081888;28;20705;-65
2023/08/12 14:30:50;;;;;;;6.10;5.50;;;;;;;;;;5082696;28;20709;-66
2023/08/12 14:33:23;;;;;;;6.00;5.60;;;;;;;;;;5083270;28;20690;-65
2023/08/12 14:35:51;;;;;;;6.93;5.13;;;;;;;;;;5083239;28;20681;-65
2023/08/12 14:38:19;;;;;;;5.50;5.00;;;;;;;;;;5081579;28;20732;-65
2023/08/12 14:40:49;;;;;;;11.03;4.80;;;;;;;;;;5079960;28;21239;-65
2023/08/12 14:43:17;;;;;;;4.23;3.93;;;;;;;;;;5079730;28;20717;-64
2023/08/12 14:45:46;;;;;;;7.40;4.40;;;;;;;;;;5080020;28;21254;-66
2023/08/12 14:48:15;;;;;;;8.27;4.80;;;;;;;;;;5080805;28;20685;-64
2023/08/12 14:50:44;;;;;;;10.87;4.80;;;;;;;;;;5080069;28;20682;-65